createdAt,value
2023-02-06T00:02:23.930Z,10.57
2023-02-06T00:04:51.495Z,10.53
2023-02-06T00:07:19.010Z,11.25
2023-02-06T00:09:46.540Z,11.43
2023-02-06T00:12:14.465Z,10.77
2023-02-06T00:14:43.306Z,11.35
2023-02-06T00:17:10.802Z,11.40
2023-02-06T00:19:38.380Z,9.85
2023-02-06T00:22:05.870Z,10.90
2023-02-06T00:24:33.439Z,11.00
2023-02-06T00:27:01.101Z,10.60
2023-02-06T00:29:28.651Z,9.73
2023-02-06T00:31:57.527Z,9.90
2023-02-06T00:34:25.446Z,9.95
2023-02-06T00:36:53.007Z,10.95
2023-02-06T00:39:20.806Z,9.75
2023-02-06T00:41:50.134Z,9.13
2023-02-06T00:44:18.521Z,9.27
2023-02-06T00:46:46.101Z,8.88
2023-02-06T00:49:15.199Z,9.20
2023-02-06T00:51:42.813Z,9.73
2023-02-06T00:54:10.610Z,9.40
2023-02-06T00:56:38.181Z,8.35
2023-02-06T00:59:05.809Z,9.73
2023-02-06T01:01:33.445Z,9.00
2023-02-06T01:04:01.761Z,8.85
2023-02-06T01:06:30.677Z,8.63
2023-02-06T01:08:58.203Z,8.68
2023-02-06T01:11:28.922Z,9.63
2023-02-06T01:13:56.620Z,8.52
2023-02-06T01:16:25.764Z,8.40
2023-02-06T01:18:54.052Z,8.57
2023-02-06T01:21:23.446Z,8.88
2023-02-06T01:23:54.756Z,8.10
2023-02-06T01:26:24.311Z,7.93
2023-02-06T01:28:51.904Z,8.10
2023-02-06T01:31:23.269Z,7.83
2023-02-06T01:33:52.161Z,8.68
2023-02-06T01:36:20.802Z,7.45
2023-02-06T01:38:49.270Z,7.82
2023-02-06T01:41:20.244Z,7.97
2023-02-06T01:44:07.180Z,7.53
2023-02-06T01:46:35.025Z,7.22
2023-02-06T01:49:03.835Z,8.05
2023-02-06T01:51:33.142Z,7.55
2023-02-06T01:54:05.429Z,6.82
2023-02-06T01:56:40.873Z,7.40
2023-02-06T01:59:08.439Z,6.95
2023-02-06T02:01:36.557Z,7.07
2023-02-06T02:04:06.537Z,7.03
2023-02-06T02:06:35.464Z,6.60
2023-02-06T02:09:04.653Z,6.23
2023-02-06T02:11:35.892Z,6.32
2023-02-06T02:14:16.046Z,6.40
2023-02-06T02:16:53.896Z,5.65
2023-02-06T02:19:59.634Z,6.75
2023-02-06T02:22:45.113Z,6.60
2023-02-06T02:25:43.564Z,6.38
2023-02-06T02:28:35.670Z,6.82
2023-02-06T02:31:28.642Z,6.57
2023-02-06T02:34:32.265Z,6.25
2023-02-06T02:37:11.152Z,5.97
2023-02-06T02:39:46.777Z,5.45
2023-02-06T02:42:24.062Z,5.88
2023-02-06T02:44:56.244Z,6.07
2023-02-06T02:47:29.559Z,5.78
2023-02-06T02:50:01.066Z,5.70
2023-02-06T02:52:30.680Z,5.20
2023-02-06T02:54:58.264Z,5.80
2023-02-06T02:57:30.397Z,5.35
2023-02-06T03:00:00.570Z,5.55
2023-02-06T03:02:35.858Z,5.37
2023-02-06T03:05:06.660Z,5.82
2023-02-06T03:07:46.198Z,5.32
2023-02-06T03:10:22.521Z,5.13
2023-02-06T03:12:56.613Z,5.22
2023-02-06T03:15:30.652Z,4.83
2023-02-06T03:18:03.290Z,5.75
2023-02-06T03:20:32.762Z,5.43
2023-02-06T03:23:03.823Z,4.80
2023-02-06T03:25:37.769Z,4.97
2023-02-06T03:28:11.739Z,5.23
2023-02-06T03:30:42.276Z,4.47
2023-02-06T03:33:14.386Z,4.45
2023-02-06T03:35:42.221Z,4.85
2023-02-06T03:38:11.507Z,4.95
2023-02-06T03:40:41.882Z,4.80
2023-02-06T03:43:12.869Z,5.03
2023-02-06T03:45:43.627Z,4.68
2023-02-06T03:48:15.727Z,5.03
2023-02-06T03:50:47.855Z,4.65
2023-02-06T03:53:18.289Z,4.57
2023-02-06T03:55:48.168Z,4.60
2023-02-06T03:58:15.968Z,5.28
2023-02-06T04:00:46.732Z,5.05
2023-02-06T04:03:16.182Z,4.00
2023-02-06T04:05:43.709Z,4.13
2023-02-06T04:08:11.261Z,4.35
2023-02-06T04:10:40.142Z,4.18
2023-02-06T04:13:07.650Z,8.75
2023-02-06T04:15:35.627Z,4.80
2023-02-06T04:18:04.536Z,3.90
2023-02-06T04:20:32.761Z,4.45
2023-02-06T04:23:00.425Z,4.30
2023-02-06T04:25:28.089Z,4.30
2023-02-06T04:27:57.008Z,4.90
2023-02-06T04:30:24.630Z,3.83
2023-02-06T04:32:52.419Z,4.35
2023-02-06T04:35:20.346Z,4.28
2023-02-06T04:37:47.845Z,4.20
2023-02-06T04:40:15.399Z,4.53
2023-02-06T04:42:42.913Z,3.70
2023-02-06T04:45:12.031Z,4.28
2023-02-06T04:47:40.097Z,4.53
2023-02-06T04:50:08.427Z,3.55
2023-02-06T04:52:35.945Z,4.03
2023-02-06T04:55:03.448Z,4.10
2023-02-06T04:57:30.967Z,4.63
2023-02-06T04:59:58.464Z,6.13
2023-02-06T05:02:27.406Z,4.68
2023-02-06T05:04:54.900Z,4.53
2023-02-06T05:07:22.512Z,3.80
2023-02-06T05:09:50.103Z,3.78
2023-02-06T05:12:17.617Z,4.40
2023-02-06T05:14:45.218Z,4.35
2023-02-06T05:17:12.726Z,4.28
2023-02-06T05:19:41.577Z,3.60
2023-02-06T05:22:09.330Z,4.07
2023-02-06T05:24:36.877Z,4.20
2023-02-06T05:27:04.989Z,3.83
2023-02-06T05:29:32.552Z,4.32
2023-02-06T05:32:00.104Z,5.27
2023-02-06T05:34:27.928Z,5.05
2023-02-06T05:36:56.851Z,4.68
2023-02-06T05:39:24.752Z,4.55
2023-02-06T05:41:52.286Z,3.80
2023-02-06T05:44:19.829Z,4.30
2023-02-06T05:46:48.502Z,4.43
2023-02-06T05:49:16.233Z,5.18
2023-02-06T05:51:43.835Z,5.75
2023-02-06T05:54:13.132Z,5.15
2023-02-06T05:56:40.646Z,4.37
2023-02-06T05:59:08.143Z,4.80
2023-02-06T06:01:35.688Z,4.30
2023-02-06T06:04:03.797Z,4.70
2023-02-06T06:06:31.538Z,4.93
2023-02-06T06:09:01.193Z,4.83
2023-02-06T06:11:30.545Z,4.80
2023-02-06T06:13:58.093Z,4.18
2023-02-06T06:16:25.898Z,4.07
2023-02-06T06:18:53.481Z,4.30
2023-02-06T06:21:20.969Z,4.30
2023-02-06T06:23:48.528Z,4.05
2023-02-06T06:26:16.312Z,3.88
2023-02-06T06:28:45.182Z,4.72
2023-02-06T06:31:13.300Z,4.60
2023-02-06T06:33:41.878Z,4.10
2023-02-06T06:36:12.900Z,4.40
2023-02-06T06:38:41.837Z,4.38
2023-02-06T06:41:09.329Z,4.55
2023-02-06T06:43:37.018Z,5.00
2023-02-06T06:46:06.373Z,6.23
2023-02-06T06:48:36.372Z,5.95
2023-02-06T06:51:03.952Z,6.05
2023-02-06T06:53:31.535Z,5.07
2023-02-06T06:56:03.551Z,4.50
2023-02-06T06:58:31.368Z,4.50
2023-02-06T07:00:58.941Z,4.00
2023-02-06T07:03:28.028Z,4.05
2023-02-06T07:05:55.541Z,3.90
2023-02-06T07:08:23.102Z,4.10
2023-02-06T07:10:50.724Z,3.77
2023-02-06T07:13:18.332Z,3.70
2023-02-06T07:15:45.876Z,4.25
2023-02-06T07:18:13.397Z,4.00
2023-02-06T07:20:42.301Z,4.03
2023-02-06T07:23:09.810Z,4.63
2023-02-06T07:25:37.532Z,4.75
2023-02-06T07:28:05.386Z,5.10
2023-02-06T07:30:32.979Z,5.03
2023-02-06T07:33:00.579Z,5.80
2023-02-06T07:35:28.225Z,4.77
2023-02-06T07:37:57.190Z,4.85
2023-02-06T07:40:26.249Z,4.50
2023-02-06T07:42:53.822Z,4.32
2023-02-06T07:45:26.870Z,4.50
2023-02-06T07:47:54.733Z,4.37
2023-02-06T07:50:22.261Z,5.30
2023-02-06T07:52:49.821Z,5.03
2023-02-06T07:55:18.850Z,5.97
2023-02-06T07:57:46.382Z,5.15
2023-02-06T08:00:14.947Z,5.33
2023-02-06T08:02:42.980Z,4.88
2023-02-06T08:05:10.489Z,5.30
2023-02-06T08:07:38.126Z,5.20
2023-02-06T08:10:06.435Z,5.32
2023-02-06T08:12:35.259Z,5.07
2023-02-06T08:15:03.725Z,5.90
2023-02-06T08:17:31.276Z,6.32
2023-02-06T08:19:58.773Z,6.00
2023-02-06T08:22:26.413Z,6.28
2023-02-06T08:24:54.046Z,5.43
2023-02-06T08:27:21.674Z,4.85
2023-02-06T08:29:51.613Z,5.07
2023-02-06T08:32:19.184Z,5.28
2023-02-06T08:34:46.769Z,6.53
2023-02-06T08:37:14.387Z,5.87
2023-02-06T08:39:42.057Z,6.60
2023-02-06T08:42:09.566Z,6.10
2023-02-06T08:44:37.297Z,6.10
2023-02-06T08:47:10.415Z,5.50
2023-02-06T08:49:38.707Z,5.67
2023-02-06T08:52:06.717Z,6.13
2023-02-06T08:54:36.334Z,6.38
2023-02-06T08:57:06.498Z,6.50
2023-02-06T08:59:34.793Z,5.70
2023-02-06T09:02:02.564Z,6.27
2023-02-06T09:04:34.510Z,5.93
2023-02-06T09:07:02.080Z,6.45
2023-02-06T09:09:29.622Z,6.20
2023-02-06T09:12:02.071Z,6.45
2023-02-06T09:14:29.781Z,6.53
2023-02-06T09:16:58.093Z,6.82
2023-02-06T09:19:26.128Z,7.13
2023-02-06T09:21:55.152Z,5.85
2023-02-06T09:24:22.826Z,5.88
2023-02-06T09:27:00.210Z,5.27
2023-02-06T09:29:31.308Z,5.78
2023-02-06T09:31:59.290Z,6.55
2023-02-06T09:34:27.970Z,5.93
2023-02-06T09:36:57.704Z,6.32
2023-02-06T09:39:25.710Z,6.27
2023-02-06T09:41:55.906Z,6.32
2023-02-06T09:44:29.024Z,6.38
2023-02-06T09:47:02.008Z,6.47
2023-02-06T09:49:32.691Z,6.75
2023-02-06T09:52:13.666Z,7.10
2023-02-06T09:54:52.106Z,6.70
2023-02-06T09:57:31.195Z,6.35
2023-02-06T10:00:02.011Z,6.22
2023-02-06T10:03:01.836Z,6.03
2023-02-06T10:05:40.686Z,7.27
2023-02-06T10:08:20.196Z,7.00
2023-02-06T10:10:51.639Z,6.95
2023-02-06T10:13:25.269Z,7.05
2023-02-06T10:15:56.527Z,6.60
2023-02-06T10:18:30.513Z,6.40
2023-02-06T10:21:01.642Z,6.10
2023-02-06T10:23:35.236Z,6.03
2023-02-06T10:26:12.265Z,5.40
2023-02-06T10:28:41.400Z,5.40
2023-02-06T10:31:40.377Z,5.83
2023-02-06T10:34:29.671Z,5.55
2023-02-06T10:37:11.270Z,6.28
2023-02-06T10:39:49.497Z,5.30
2023-02-06T10:42:24.513Z,5.75
2023-02-06T10:45:17.126Z,5.13
2023-02-06T10:47:54.218Z,5.88
2023-02-06T10:50:28.423Z,5.25
2023-02-06T10:52:59.581Z,5.63
2023-02-06T10:55:33.637Z,5.15
2023-02-06T10:58:07.766Z,5.50
2023-02-06T11:00:36.081Z,5.55
2023-02-06T11:03:08.485Z,5.22
2023-02-06T11:05:37.409Z,5.55
2023-02-06T11:08:14.710Z,5.60
2023-02-06T11:10:43.735Z,5.50
2023-02-06T11:13:14.821Z,5.30
2023-02-06T11:15:48.955Z,6.78
2023-02-06T11:18:20.362Z,7.20
2023-02-06T11:20:50.022Z,7.55
2023-02-06T11:23:19.800Z,9.03
2023-02-06T11:25:56.676Z,9.40
2023-02-06T11:28:25.105Z,9.77
2023-02-06T11:30:58.395Z,8.80
2023-02-06T11:33:41.814Z,9.15
2023-02-06T11:36:24.789Z,7.40
2023-02-06T11:38:58.037Z,7.20
2023-02-06T11:41:28.067Z,6.30
2023-02-06T11:44:02.330Z,6.80
2023-02-06T11:46:32.301Z,6.88
2023-02-06T11:49:06.122Z,6.40
2023-02-06T11:51:49.762Z,6.32
2023-02-06T11:54:23.632Z,6.40
2023-02-06T11:57:03.174Z,6.03
2023-02-06T11:59:34.322Z,6.13
2023-02-06T12:02:06.882Z,6.10
2023-02-06T12:04:38.675Z,6.57
2023-02-06T12:07:14.766Z,6.90
2023-02-06T12:09:42.486Z,6.30
2023-02-06T12:12:22.815Z,6.95
2023-02-06T12:14:55.125Z,5.97
2023-02-06T12:17:28.115Z,5.75
2023-02-06T12:20:02.151Z,6.68
2023-02-06T12:22:36.085Z,6.82
2023-02-06T12:25:05.418Z,6.35
2023-02-06T12:27:39.268Z,7.23
2023-02-06T12:30:17.823Z,6.03
2023-02-06T12:32:50.854Z,6.80
2023-02-06T12:35:24.552Z,6.13
2023-02-06T12:37:56.299Z,6.28
2023-02-06T12:40:39.946Z,6.17
2023-02-06T12:43:12.097Z,5.57
2023-02-06T12:45:49.788Z,5.95
2023-02-06T12:48:21.409Z,6.00
2023-02-06T12:51:05.589Z,5.40
2023-02-06T12:53:38.360Z,5.80
2023-02-06T12:56:14.359Z,6.10
2023-02-06T12:58:55.036Z,6.43
2023-02-06T13:01:38.088Z,5.70
2023-02-06T13:04:08.161Z,6.25
2023-02-06T13:06:44.772Z,5.93
2023-02-06T13:09:19.437Z,6.55
2023-02-06T13:11:47.093Z,6.00
2023-02-06T13:14:20.697Z,5.82
2023-02-06T13:16:58.112Z,5.55
2023-02-06T13:19:32.608Z,6.37
2023-02-06T13:22:35.028Z,6.13
2023-02-06T13:25:23.102Z,6.00
2023-02-06T13:27:50.778Z,5.88
2023-02-06T13:30:47.772Z,5.43
2023-02-06T13:33:17.388Z,5.40
2023-02-06T13:36:07.997Z,5.65
2023-02-06T13:38:42.242Z,5.70
2023-02-06T13:41:28.149Z,5.40
2023-02-06T13:43:59.027Z,5.70
2023-02-06T13:46:54.457Z,6.00
2023-02-06T13:49:44.415Z,5.30
2023-02-06T13:52:20.679Z,5.20
2023-02-06T13:55:03.815Z,5.13
2023-02-06T13:57:52.271Z,5.10
2023-02-06T14:00:24.309Z,5.40
2023-02-06T14:02:56.672Z,5.10
2023-02-06T14:05:31.769Z,5.05
2023-02-06T14:08:19.737Z,5.28
2023-02-06T14:11:34.706Z,5.47
2023-02-06T14:14:24.760Z,5.90
2023-02-06T14:17:02.654Z,5.60
2023-02-06T14:19:40.678Z,5.82
2023-02-06T14:22:19.153Z,5.40
2023-02-06T14:25:04.522Z,5.68
2023-02-06T14:27:46.585Z,4.23
2023-02-06T14:30:27.806Z,4.40
2023-02-06T14:33:08.096Z,4.38
2023-02-06T14:35:51.470Z,4.60
2023-02-06T14:38:43.542Z,4.93
2023-02-06T14:41:11.595Z,4.77
2023-02-06T14:43:44.028Z,4.80
2023-02-06T14:46:16.699Z,4.88
2023-02-06T14:48:47.903Z,4.32
2023-02-06T14:51:24.316Z,4.63
2023-02-06T14:53:54.352Z,4.93
2023-02-06T14:56:28.501Z,4.60
2023-02-06T14:58:56.328Z,4.60
2023-02-06T15:01:29.139Z,4.70
2023-02-06T15:04:11.245Z,4.82
2023-02-06T15:06:42.347Z,4.37
2023-02-06T15:09:24.824Z,4.22
2023-02-06T15:11:54.031Z,4.85
2023-02-06T15:14:24.556Z,5.30
2023-02-06T15:16:52.693Z,4.60
2023-02-06T15:19:22.772Z,5.30
2023-02-06T15:22:01.660Z,4.72
2023-02-06T15:24:43.359Z,4.60
2023-02-06T15:27:19.848Z,4.97
2023-02-06T15:29:50.034Z,5.30
2023-02-06T15:32:27.813Z,5.17
2023-02-06T15:34:55.635Z,4.80
2023-02-06T15:37:28.726Z,5.45
2023-02-06T15:40:00.591Z,5.18
2023-02-06T15:42:28.282Z,5.25
2023-02-06T15:44:55.969Z,5.17
2023-02-06T15:47:23.769Z,5.30
2023-02-06T15:49:53.206Z,5.07
2023-02-06T15:52:39.388Z,4.93
2023-02-06T15:55:07.259Z,5.25
2023-02-06T15:57:39.257Z,4.73
2023-02-06T16:00:15.503Z,5.05
2023-02-06T16:02:43.164Z,5.57
2023-02-06T16:05:24.909Z,5.90
2023-02-06T16:07:54.769Z,5.70
2023-02-06T16:10:25.896Z,5.50
2023-02-06T16:12:55.124Z,5.30
2023-02-06T16:15:29.458Z,5.43
2023-02-06T16:17:58.224Z,5.47
2023-02-06T16:20:32.302Z,5.90
2023-02-06T16:23:31.784Z,5.67
2023-02-06T16:26:08.506Z,5.95
2023-02-06T16:28:41.884Z,6.95
2023-02-06T16:31:13.763Z,6.57
2023-02-06T16:33:44.100Z,6.70
2023-02-06T16:36:14.161Z,5.83
2023-02-06T16:38:48.374Z,5.70
2023-02-06T16:41:25.958Z,6.15
2023-02-06T16:43:54.588Z,6.10
2023-02-06T16:46:22.442Z,6.07
2023-02-06T16:48:50.150Z,5.67
2023-02-06T16:51:19.674Z,5.85
2023-02-06T16:53:49.866Z,6.40
2023-02-06T16:56:18.950Z,5.85
2023-02-06T16:58:47.113Z,6.40
2023-02-06T17:01:21.872Z,5.50
2023-02-06T17:03:50.222Z,5.85
2023-02-06T17:06:21.113Z,6.18
2023-02-06T17:08:52.698Z,5.95
2023-02-06T17:11:20.494Z,13.10
2023-02-06T17:13:48.222Z,9.70
2023-02-06T17:16:19.646Z,9.57
2023-02-06T17:18:47.943Z,7.75
2023-02-06T17:21:18.049Z,7.32
2023-02-06T17:23:46.255Z,6.22
2023-02-06T17:26:17.659Z,6.37
2023-02-06T17:28:45.720Z,6.47
2023-02-06T17:31:13.531Z,7.50
2023-02-06T17:33:41.133Z,7.15
2023-02-06T17:36:17.197Z,7.13
2023-02-06T17:38:44.991Z,7.07
2023-02-06T17:41:12.746Z,6.53
2023-02-06T17:43:41.725Z,7.30
2023-02-06T17:46:11.805Z,7.15
2023-02-06T17:48:42.500Z,7.20
2023-02-06T17:51:11.028Z,8.63
2023-02-06T17:53:39.067Z,8.60
2023-02-06T17:56:07.294Z,8.45
2023-02-06T17:58:35.043Z,8.50
2023-02-06T18:01:03.964Z,8.43
2023-02-06T18:03:31.553Z,8.93
2023-02-06T18:05:59.641Z,8.63
2023-02-06T18:08:27.848Z,8.73
2023-02-06T18:10:55.985Z,9.20
2023-02-06T18:13:24.313Z,8.45
2023-02-06T18:15:52.941Z,9.30
2023-02-06T18:18:22.520Z,9.43
2023-02-06T18:20:50.273Z,9.20
2023-02-06T18:23:19.146Z,10.57
2023-02-06T18:25:46.991Z,11.35
2023-02-06T18:28:16.281Z,10.40
2023-02-06T18:30:43.949Z,10.85
2023-02-06T18:33:12.676Z,11.18
2023-02-06T18:35:44.237Z,10.73
2023-02-06T18:38:12.229Z,12.07
2023-02-06T18:40:40.957Z,13.43
2023-02-06T18:43:07.856Z,12.60
2023-02-06T18:45:38.185Z,12.02
2023-02-06T18:48:07.880Z,11.00
2023-02-06T18:50:36.512Z,10.57
2023-02-06T18:53:05.593Z,9.47
2023-02-06T18:55:34.799Z,9.35
2023-02-06T18:58:02.921Z,9.27
2023-02-06T19:00:30.606Z,10.18
2023-02-06T19:02:59.179Z,10.82
2023-02-06T19:05:28.879Z,9.90
2023-02-06T19:07:56.439Z,9.25
2023-02-06T19:10:25.791Z,8.93
2023-02-06T19:12:53.342Z,9.45
2023-02-06T19:15:21.115Z,8.88
2023-02-06T19:17:49.469Z,8.83
2023-02-06T19:20:17.336Z,7.85
2023-02-06T19:22:44.847Z,7.90
2023-02-06T19:25:14.546Z,8.55
2023-02-06T19:27:43.813Z,8.52
2023-02-06T19:30:13.532Z,9.30
2023-02-06T19:32:41.166Z,8.95
2023-02-06T19:35:09.155Z,8.75
2023-02-06T19:37:36.749Z,9.70
2023-02-06T19:40:04.571Z,9.63
2023-02-06T19:42:32.122Z,10.37
2023-02-06T19:45:01.051Z,10.98
2023-02-06T19:47:28.658Z,11.90
2023-02-06T19:49:56.207Z,12.30
2023-02-06T19:52:23.825Z,12.70
2023-02-06T19:54:51.409Z,13.83
2023-02-06T19:57:19.330Z,13.07
2023-02-06T19:59:46.948Z,14.25
2023-02-06T20:02:16.693Z,14.45
2023-02-06T20:04:45.127Z,15.85
2023-02-06T20:07:12.854Z,14.97
2023-02-06T20:09:41.769Z,16.15
2023-02-06T20:12:09.999Z,15.68
2023-02-06T20:14:37.583Z,15.90
2023-02-06T20:17:05.732Z,16.73
2023-02-06T20:19:34.681Z,16.03
2023-02-06T20:22:03.040Z,16.55
2023-02-06T20:24:32.457Z,17.17
2023-02-06T20:27:05.577Z,17.23
2023-02-06T20:29:35.691Z,16.95
2023-02-06T20:32:04.398Z,19.47
2023-02-06T20:34:32.178Z,17.77
2023-02-06T20:37:01.573Z,15.48
2023-02-06T20:39:30.244Z,14.30
2023-02-06T20:41:57.838Z,12.32
2023-02-06T20:44:26.180Z,11.30
2023-02-06T20:46:54.056Z,10.77
2023-02-06T20:49:23.814Z,10.05
2023-02-06T20:51:51.566Z,10.18
2023-02-06T20:54:21.511Z,9.65
2023-02-06T20:56:49.620Z,9.67
2023-02-06T20:59:19.507Z,9.35
2023-02-06T21:01:47.512Z,9.95
2023-02-06T21:04:16.573Z,9.98
2023-02-06T21:06:44.482Z,10.23
2023-02-06T21:09:12.740Z,14.17
2023-02-06T21:11:44.195Z,13.30
2023-02-06T21:14:13.054Z,14.27
2023-02-06T21:16:41.141Z,13.43
2023-02-06T21:19:11.376Z,14.85
2023-02-06T21:21:39.493Z,13.57
2023-02-06T21:24:08.534Z,14.52
2023-02-06T21:26:37.027Z,14.60
2023-02-06T21:29:07.668Z,14.38
2023-02-06T21:31:38.800Z,13.98
2023-02-06T21:34:09.020Z,13.50
2023-02-06T21:36:38.891Z,14.93
2023-02-06T21:39:07.696Z,14.13
2023-02-06T21:41:35.614Z,14.20
2023-02-06T21:44:03.375Z,13.40
2023-02-06T21:46:33.316Z,14.17
2023-02-06T21:49:00.984Z,12.90
2023-02-06T21:51:28.854Z,12.25
2023-02-06T21:53:56.912Z,13.25
2023-02-06T21:56:27.018Z,12.98
2023-02-06T21:58:54.669Z,13.80
2023-02-06T22:01:24.757Z,12.80
2023-02-06T22:03:54.247Z,13.50
2023-02-06T22:06:22.266Z,12.70
2023-02-06T22:08:52.439Z,12.85
2023-02-06T22:11:22.069Z,13.23
2023-02-06T22:13:50.569Z,13.32
2023-02-06T22:16:22.088Z,13.30
2023-02-06T22:18:49.787Z,12.70
2023-02-06T22:21:20.956Z,12.88
2023-02-06T22:23:49.953Z,12.90
2023-02-06T22:26:19.712Z,12.13
2023-02-06T22:28:47.503Z,13.45
2023-02-06T22:31:18.136Z,14.00
2023-02-06T22:33:46.031Z,13.30
2023-02-06T22:36:15.944Z,13.00
2023-02-06T22:38:46.644Z,13.38
2023-02-06T22:41:16.402Z,13.93
2023-02-06T22:43:45.676Z,13.15
2023-02-06T22:46:18.806Z,12.20
2023-02-06T22:48:46.429Z,11.93
2023-02-06T22:51:14.018Z,13.38
2023-02-06T22:53:42.346Z,14.18
2023-02-06T22:56:31.104Z,13.07
2023-02-06T22:59:00.561Z,13.57
2023-02-06T23:01:30.500Z,12.50
2023-02-06T23:03:58.738Z,12.77
2023-02-06T23:06:27.559Z,13.35
2023-02-06T23:08:56.346Z,13.02
2023-02-06T23:11:26.219Z,13.13
2023-02-06T23:13:54.862Z,13.10
2023-02-06T23:16:23.200Z,12.93
2023-02-06T23:18:51.635Z,12.55
2023-02-06T23:21:21.320Z,12.38
2023-02-06T23:23:49.342Z,12.73
2023-02-06T23:26:19.594Z,12.27
2023-02-06T23:28:48.560Z,12.25
2023-02-06T23:31:16.528Z,12.55
2023-02-06T23:33:44.219Z,12.48
2023-02-06T23:36:14.542Z,11.52
2023-02-06T23:38:43.209Z,11.67
2023-02-06T23:41:13.024Z,11.27
2023-02-06T23:43:40.823Z,11.82
2023-02-06T23:46:12.389Z,11.35
2023-02-06T23:48:40.663Z,11.85
2023-02-06T23:51:08.534Z,12.97
2023-02-06T23:53:36.089Z,12.50
2023-02-06T23:56:11.004Z,12.75
2023-02-06T23:58:38.613Z,12.07
